createdAt,value
2017-10-13T00:03:52.312Z,75.60
2017-10-13T00:09:20.466Z,75.80
2017-10-13T00:14:48.656Z,76.00
2017-10-13T00:20:17.588Z,76.00
2017-10-13T00:25:45.731Z,76.00
2017-10-13T00:31:13.857Z,76.10
2017-10-13T00:36:42.007Z,76.30
2017-10-13T00:42:10.159Z,76.20
2017-10-13T00:47:38.298Z,76.20
2017-10-13T00:53:06.470Z,76.50
2017-10-13T00:58:35.370Z,76.90
2017-10-13T01:04:03.523Z,76.90
2017-10-13T01:09:31.662Z,77.10
2017-10-13T01:15:00.576Z,77.40
2017-10-13T01:20:28.712Z,77.30
2017-10-13T01:25:56.877Z,77.50
2017-10-13T01:31:25.026Z,77.60
2017-10-13T01:36:54.170Z,77.70
2017-10-13T01:42:23.099Z,78.40
2017-10-13T01:47:51.242Z,77.90
2017-10-13T01:53:19.382Z,77.90
2017-10-13T01:58:48.288Z,78.10
2017-10-13T02:04:16.549Z,78.00
2017-10-13T02:09:44.678Z,78.10
2017-10-13T02:15:13.575Z,78.20
2017-10-13T02:20:41.711Z,78.20
2017-10-13T02:26:10.643Z,78.10
2017-10-13T02:31:38.797Z,78.00
2017-10-13T02:37:06.945Z,77.80
2017-10-13T02:42:35.105Z,78.00
2017-10-13T02:48:03.361Z,77.70
2017-10-13T02:53:31.638Z,77.50
2017-10-13T02:58:59.783Z,77.60
2017-10-13T03:04:27.918Z,77.60
2017-10-13T03:09:56.040Z,77.90
2017-10-13T03:15:24.985Z,77.80
2017-10-13T03:20:53.213Z,77.80
2017-10-13T03:26:22.354Z,78.20
2017-10-13T03:31:50.510Z,77.90
2017-10-13T03:37:18.681Z,77.80
2017-10-13T03:42:47.580Z,78.90
2017-10-13T03:48:15.723Z,79.00
2017-10-13T03:53:43.871Z,78.90
2017-10-13T03:59:12.789Z,79.30
2017-10-13T04:04:40.913Z,79.20
2017-10-13T04:10:09.032Z,79.10
2017-10-13T04:15:37.181Z,79.10
2017-10-13T04:21:05.311Z,79.00
2017-10-13T04:26:34.302Z,79.00
2017-10-13T04:32:02.445Z,79.00
2017-10-13T04:37:30.591Z,79.00
2017-10-13T04:42:58.733Z,79.00
2017-10-13T04:48:26.881Z,79.00
2017-10-13T04:53:55.775Z,79.10
2017-10-13T04:59:23.950Z,79.10
2017-10-13T05:04:52.089Z,79.20
2017-10-13T05:10:21.136Z,79.20
2017-10-13T05:15:52.164Z,79.40
2017-10-13T05:21:20.295Z,79.40
2017-10-13T05:26:48.563Z,79.50
2017-10-13T05:32:16.686Z,79.70
2017-10-13T05:37:44.819Z,79.80
2017-10-13T05:43:12.972Z,79.80
2017-10-13T05:48:41.865Z,80.00
2017-10-13T05:54:10.011Z,80.00
2017-10-13T05:59:38.273Z,80.10
2017-10-13T06:05:06.412Z,80.20
2017-10-13T06:10:34.563Z,80.10
2017-10-13T06:16:03.452Z,80.50
2017-10-13T06:21:32.363Z,78.70
2017-10-13T06:27:00.526Z,78.70
2017-10-13T06:32:28.669Z,78.70
2017-10-13T06:37:56.826Z,78.70
2017-10-13T06:43:24.996Z,78.70
2017-10-13T06:48:53.156Z,78.60
2017-10-13T06:54:21.300Z,78.50
2017-10-13T06:59:49.447Z,78.50
2017-10-13T07:05:17.586Z,78.40
2017-10-13T07:10:46.501Z,78.30
2017-10-13T07:16:14.644Z,78.30
2017-10-13T07:21:42.807Z,78.10
2017-10-13T07:27:10.943Z,78.10
2017-10-13T07:32:39.078Z,77.70
2017-10-13T07:38:07.229Z,77.70
2017-10-13T07:43:35.390Z,77.40
2017-10-13T07:49:03.518Z,77.40
2017-10-13T07:54:31.663Z,77.00
2017-10-13T08:00:00.209Z,76.50
2017-10-13T08:05:28.401Z,76.10
2017-10-13T08:10:57.918Z,76.00
2017-10-13T08:16:26.841Z,75.70
2017-10-13T08:21:54.991Z,75.40
2017-10-13T08:27:24.669Z,74.50
2017-10-13T08:32:52.957Z,74.30
2017-10-13T08:38:21.136Z,73.90
2017-10-13T08:43:49.266Z,73.70
2017-10-13T08:49:18.171Z,72.40
2017-10-13T08:54:46.314Z,72.30
2017-10-13T09:00:14.476Z,71.90
2017-10-13T09:05:42.628Z,70.60
2017-10-13T09:11:10.781Z,70.70
2017-10-13T09:16:38.902Z,69.70
2017-10-13T09:22:07.535Z,68.90
2017-10-13T09:27:35.678Z,67.80
2017-10-13T09:33:03.802Z,67.60
2017-10-13T09:38:31.934Z,66.80
2017-10-13T09:44:00.075Z,65.70
2017-10-13T09:49:28.235Z,65.50
2017-10-13T09:54:56.455Z,64.90
2017-10-13T10:00:24.755Z,64.50
2017-10-13T10:05:53.464Z,63.90
2017-10-13T10:11:21.792Z,63.30
2017-10-13T10:16:49.983Z,63.30
2017-10-13T10:22:18.904Z,62.60
2017-10-13T10:27:47.056Z,62.50
2017-10-13T10:33:15.229Z,61.10
2017-10-13T10:38:43.399Z,60.20
2017-10-13T10:44:11.566Z,60.30
2017-10-13T10:49:39.707Z,60.10
2017-10-13T10:55:07.869Z,60.00
2017-10-13T11:00:36.009Z,59.00
2017-10-13T11:06:04.157Z,58.80
2017-10-13T11:11:32.450Z,58.10
2017-10-13T11:17:01.386Z,57.90
2017-10-13T11:22:29.517Z,57.80
2017-10-13T11:27:57.701Z,58.00
2017-10-13T11:33:25.869Z,57.50
2017-10-13T11:38:54.242Z,57.20
2017-10-13T11:44:22.407Z,56.60
2017-10-13T11:49:58.794Z,55.90
2017-10-13T11:55:27.712Z,55.20
2017-10-13T12:00:55.841Z,55.10
2017-10-13T12:06:23.986Z,54.90
2017-10-13T12:11:52.898Z,54.10
2017-10-13T12:17:21.052Z,54.10
2017-10-13T12:22:49.246Z,54.20
2017-10-13T12:28:17.396Z,53.80
2017-10-13T12:33:45.548Z,54.30
2017-10-13T12:39:13.743Z,53.90
2017-10-13T12:44:42.666Z,53.30
2017-10-13T12:50:10.829Z,52.90
2017-10-13T12:55:38.974Z,54.00
2017-10-13T13:01:07.099Z,53.20
2017-10-13T13:06:36.626Z,54.00
2017-10-13T13:12:04.787Z,54.00
2017-10-13T13:17:32.928Z,53.50
2017-10-13T13:23:02.182Z,53.20
2017-10-13T13:28:30.367Z,52.80
2017-10-13T13:33:58.637Z,51.90
2017-10-13T13:39:26.935Z,50.70
2017-10-13T13:44:55.606Z,48.80
2017-10-13T13:50:23.755Z,46.10
2017-10-13T13:55:51.911Z,43.60
2017-10-13T14:01:20.068Z,41.90
2017-10-13T14:06:48.244Z,39.50
2017-10-13T14:12:16.379Z,38.70
2017-10-13T14:17:44.640Z,37.00
2017-10-13T14:23:13.028Z,36.60
2017-10-13T14:28:41.164Z,36.00
2017-10-13T14:34:09.336Z,36.00
2017-10-13T14:39:37.500Z,36.20
2017-10-13T14:45:05.638Z,36.30
2017-10-13T14:50:33.816Z,36.20
2017-10-13T14:56:03.009Z,35.70
2017-10-13T15:01:31.955Z,37.20
2017-10-13T15:07:04.911Z,37.10
2017-10-13T15:12:33.374Z,37.70
2017-10-13T15:18:01.561Z,38.60
2017-10-13T15:23:29.743Z,41.00
2017-10-13T15:29:04.413Z,43.70
2017-10-13T15:34:38.266Z,44.10
2017-10-13T15:40:12.772Z,46.20
2017-10-13T15:45:46.658Z,46.20
2017-10-13T15:57:26.209Z,47.70
2017-10-13T16:02:55.259Z,49.00
2017-10-13T16:08:24.205Z,50.80
2017-10-13T16:13:52.428Z,50.70
2017-10-13T16:19:20.595Z,51.70
2017-10-13T16:24:48.760Z,52.40
2017-10-13T16:30:16.970Z,53.30
2017-10-13T16:35:45.875Z,54.80
2017-10-13T16:41:14.105Z,54.70
2017-10-13T16:46:42.309Z,55.50
2017-10-13T16:52:10.622Z,56.10
2017-10-13T16:57:38.929Z,56.60
2017-10-13T17:03:07.084Z,57.40
2017-10-13T17:08:35.336Z,57.90
2017-10-13T17:14:03.527Z,58.30
2017-10-13T17:19:31.648Z,59.30
2017-10-13T17:24:59.920Z,59.20
2017-10-13T17:30:28.179Z,59.80
2017-10-13T17:35:56.336Z,60.20
2017-10-13T17:41:24.844Z,60.70
2017-10-13T17:46:53.751Z,61.40
2017-10-13T17:52:22.909Z,61.90
2017-10-13T17:57:51.051Z,62.30
2017-10-13T18:03:19.216Z,62.80
2017-10-13T18:08:47.379Z,63.30
2017-10-13T18:14:15.534Z,63.60
2017-10-13T18:19:43.691Z,64.10
2017-10-13T18:25:11.964Z,64.60
2017-10-13T18:30:40.818Z,64.90
2017-10-13T18:36:08.993Z,65.30
2017-10-13T18:41:37.140Z,65.70
2017-10-13T18:47:05.416Z,66.10
2017-10-13T18:52:33.586Z,66.40
2017-10-13T18:58:01.752Z,66.70
2017-10-13T19:03:29.932Z,66.90
2017-10-13T19:08:58.094Z,67.20
2017-10-13T19:14:26.254Z,67.40
2017-10-13T19:19:55.172Z,68.20
2017-10-13T19:25:23.464Z,68.20
2017-10-13T19:30:52.628Z,68.30
2017-10-13T19:36:20.793Z,68.60
2017-10-13T19:41:49.367Z,68.70
2017-10-13T19:47:17.593Z,68.90
2017-10-13T19:52:47.771Z,69.20
2017-10-13T19:58:15.943Z,69.30
2017-10-13T20:03:44.963Z,69.80
2017-10-13T20:09:13.154Z,69.70
2017-10-13T20:14:41.315Z,70.10
2017-10-13T20:20:09.463Z,70.40
2017-10-13T20:25:37.641Z,70.70
2017-10-13T20:31:06.614Z,71.30
2017-10-13T20:36:34.759Z,71.30
2017-10-13T20:42:02.996Z,71.40
2017-10-13T20:47:31.198Z,71.60
2017-10-13T20:53:02.399Z,71.80
2017-10-13T20:58:30.534Z,71.80
2017-10-13T21:04:02.713Z,72.00
2017-10-13T21:09:30.909Z,72.20
2017-10-13T21:14:59.821Z,72.40
2017-10-13T21:20:28.113Z,72.30
2017-10-13T21:25:56.299Z,72.40
2017-10-13T21:31:24.524Z,72.50
2017-10-13T21:36:54.755Z,72.70
2017-10-13T21:42:22.935Z,72.70
2017-10-13T21:47:51.886Z,73.20
2017-10-13T21:53:20.032Z,73.10
2017-10-13T21:58:48.164Z,73.30
2017-10-13T22:04:16.294Z,73.50
2017-10-13T22:09:44.439Z,73.60
2017-10-13T22:15:12.572Z,73.60
2017-10-13T22:20:40.725Z,73.70
2017-10-13T22:26:10.848Z,73.70
2017-10-13T22:31:39.015Z,73.80
2017-10-13T22:37:07.143Z,74.10
2017-10-13T22:42:35.292Z,75.00
2017-10-13T22:48:04.205Z,75.20
2017-10-13T22:53:32.334Z,75.20
2017-10-13T22:59:00.537Z,75.30
2017-10-13T23:04:28.690Z,75.40
2017-10-13T23:09:56.822Z,75.40
2017-10-13T23:15:25.045Z,75.50
2017-10-13T23:20:53.952Z,75.70
2017-10-13T23:26:22.098Z,75.70
2017-10-13T23:31:50.242Z,75.90
2017-10-13T23:37:19.144Z,76.20
2017-10-13T23:42:48.268Z,76.20
2017-10-13T23:48:16.403Z,76.20
2017-10-13T23:53:44.546Z,76.40
2017-10-13T23:59:12.719Z,76.40
